地図

経路データ

SID SEASON NUMBER BASIN SUBBASIN NAME ISO_TIME NATURE LAT LON WMO_WIND WMO_PRES WMO_AGENCY TRACK_TYPE DIST2LAND LANDFALL IFLAG USA_AGENCY USA_ATCF_ID USA_LAT USA_LON USA_RECORD USA_STATUS USA_WIND USA_PRES USA_SSHS USA_R34_NE USA_R34_SE USA_R34_SW USA_R34_NW USA_R50_NE USA_R50_SE USA_R50_SW USA_R50_NW USA_R64_NE USA_R64_SE USA_R64_SW USA_R64_NW USA_POCI USA_ROCI USA_RMW USA_EYE TOKYO_LAT TOKYO_LON TOKYO_GRADE TOKYO_WIND TOKYO_PRES TOKYO_R50_DIR TOKYO_R50_LONG TOKYO_R50_SHORT TOKYO_R30_DIR TOKYO_R30_LONG TOKYO_R30_SHORT TOKYO_LAND CMA_LAT CMA_LON CMA_CAT CMA_WIND CMA_PRES HKO_LAT HKO_LON HKO_CAT HKO_WIND HKO_PRES NEWDELHI_LAT NEWDELHI_LON NEWDELHI_GRADE NEWDELHI_WIND NEWDELHI_PRES NEWDELHI_CI NEWDELHI_DP NEWDELHI_POCI REUNION_LAT REUNION_LON REUNION_TYPE REUNION_WIND REUNION_PRES REUNION_TNUM REUNION_CI REUNION_RMW REUNION_R34_NE REUNION_R34_SE REUNION_R34_SW REUNION_R34_NW REUNION_R50_NE REUNION_R50_SE REUNION_R50_SW REUNION_R50_NW REUNION_R64_NE REUNION_R64_SE REUNION_R64_SW REUNION_R64_NW BOM_LAT BOM_LON BOM_TYPE BOM_WIND BOM_PRES BOM_TNUM BOM_CI BOM_RMW BOM_R34_NE BOM_R34_SE BOM_R34_SW BOM_R34_NW BOM_R50_NE BOM_R50_SE BOM_R50_SW BOM_R50_NW BOM_R64_NE BOM_R64_SE BOM_R64_SW BOM_R64_NW BOM_ROCI BOM_POCI BOM_EYE BOM_POS_METHOD BOM_PRES_METHOD NADI_LAT NADI_LON NADI_CAT NADI_WIND NADI_PRES WELLINGTON_LAT WELLINGTON_LON WELLINGTON_WIND WELLINGTON_PRES DS824_LAT DS824_LON DS824_STAGE DS824_WIND DS824_PRES TD9636_LAT TD9636_LON TD9636_STAGE TD9636_WIND TD9636_PRES TD9635_LAT TD9635_LON TD9635_WIND TD9635_PRES TD9635_ROCI NEUMANN_LAT NEUMANN_LON NEUMANN_CLASS NEUMANN_WIND NEUMANN_PRES MLC_LAT MLC_LON MLC_CLASS MLC_WIND MLC_PRES USA_GUST BOM_GUST BOM_GUST_PER REUNION_GUST REUNION_GUST_PER USA_SEAHGT USA_SEARAD_NE USA_SEARAD_SE USA_SEARAD_SW USA_SEARAD_NW STORM_SPEED STORM_DIR
1941059S16120 1941 16 SI WA NOT_NAMED 1941-02-27 23:00:00 NR -16.1000 119.700 main 298 298 __________O___ -1 -16.1000 119.700 7 5 250
1941059S16120 1941 16 SI WA NOT_NAMED 1941-02-28 00:00:00 NR -16.1303 119.618 main 307 307 __________P___ -1 -16.1303 119.618 7 9 266
1941059S16120 1941 16 SI WA NOT_NAMED 1941-02-28 01:00:00 NR -16.1210 119.377 970 bom main 327 327 ______O___P___ -1 -16.0000 118.900 970 -16.1614 119.537 7 8 259
1941059S16120 1941 16 SI WA NOT_NAMED 1941-02-28 03:00:00 NR -16.2105 119.192 main 342 342 ______P___P___ -1 -16.1728 118.819 -16.2293 119.378 7 6 236
1941059S16120 1941 16 SI WA NOT_NAMED 1941-02-28 06:00:00 NR -16.3895 118.965 main 355 355 ______P___P___ -1 -16.4314 118.702 -16.3580 119.162 7 6 224
1941059S16120 1941 16 SI WA NOT_NAMED 1941-02-28 09:00:00 NR -16.6138 118.791 main 368 364 ______P___P___ -1 -16.6885 118.596 -16.5391 118.986 7 6 211
1941059S16120 1941 16 SI WA NOT_NAMED 1941-02-28 11:00:00 NR -16.7793 118.718 main 371 360 ______P___O___ -1 -16.8586 118.535 -16.7000 118.900 7 6 201
1941059S16120 1941 16 SI WA NOT_NAMED 1941-02-28 12:00:00 NR -16.8690 118.688 main 360 339 ______P___P___ -1 -16.9433 118.508 -16.7947 118.868 7 6 192
1941059S16120 1941 16 SI WA NOT_NAMED 1941-02-28 15:00:00 NR -17.1599 118.632 main 328 295 ______P___P___ -1 -17.1949 118.445 -17.1249 118.819 7 6 185
1941059S16120 1941 16 SI WA NOT_NAMED 1941-02-28 18:00:00 NR -17.4689 118.624 main 295 260 ______P___P___ -1 -17.4425 118.413 -17.4953 118.835 7 6 177
1941059S16120 1941 16 SI WA NOT_NAMED 1941-02-28 21:00:00 NR -17.7768 118.667 main 260 238 ______P___P___ -1 -17.6853 118.419 -17.8684 118.914 7 6 169
1941059S16120 1941 16 SI WA NOT_NAMED 1941-02-28 23:00:00 NR -17.9720 118.724 main 238 237 ______P___O___ -1 -17.8440 118.449 -18.1000 119.000 7 6 162
1941059S16120 1941 16 SI WA NOT_NAMED 1941-03-01 00:00:00 NR -18.0540 118.759 main 225 225 ______P___P___ -1 -17.9224 118.471 -18.1857 119.046 7 5 155
1941059S16120 1941 16 SI WA NOT_NAMED 1941-03-01 01:00:00 NR -18.1330 118.800 940 bom main 225 202 ______O___P___ -1 -18.0000 118.500 940 4 -18.2659 119.099 7 5 149
1941059S16120 1941 16 SI WA NOT_NAMED 1941-03-01 03:00:00 NR -18.2851 118.900 main 202 178 ______P___P___ -1 -18.1541 118.574 -18.4161 119.226 7 6 145
1941059S16120 1941 16 SI WA NOT_NAMED 1941-03-01 06:00:00 NR -18.5163 119.086 main 178 144 ______P___P___ -1 -18.3945 118.716 -18.6382 119.457 7 6 143
1941059S16120 1941 16 SI WA NOT_NAMED 1941-03-01 09:00:00 NR -18.7794 119.296 main 144 119 ______P___P___ -1 -18.6664 118.873 -18.8925 119.718 7 7 145
1941059S16120 1941 16 SI WA NOT_NAMED 1941-03-01 11:00:00 NR -18.9884 119.437 main 119 105 ______P___O___ -1 -18.8767 118.974 -19.1000 119.900 7 8 149
1941059S16120 1941 16 SI WA NOT_NAMED 1941-03-01 12:00:00 NR -19.1062 119.506 main 105 56 ______P___P___ -1 -18.9932 119.021 -19.2193 119.991 7 9 155
1941059S16120 1941 16 SI WA NOT_NAMED 1941-03-01 15:00:00 NR -19.5163 119.701 main 56 0 ______P___P___ -1 -19.3980 119.138 -19.6347 120.265 7 9 163
1941059S16120 1941 16 SI WA NOT_NAMED 1941-03-01 18:00:00 TS -20.0093 119.794 main 0 0 ______P__OP___ -1 -19.9041 119.197 -20.0000 119.200 TC 105 940 -20.1168 120.540 7 10 175
1941059S16120 1941 16 SI WA NOT_NAMED 1941-03-01 18:30:00 TS -20.0902 119.764 940 bom main 0 0 ______O__PP___ -1 -20.0000 119.200 940 -20.0470 119.247 TC -20.2019 120.586 7 10 204
1941059S16120 1941 16 SI WA NOT_NAMED 1941-03-01 19:30:00 TS -20.2348 119.686 940 bom main 0 0 ______O__PP___ -1 -20.2000 119.200 940 -20.1411 119.342 TC -20.3750 120.677 7 8 194
1941059S16120 1941 16 SI WA NOT_NAMED 1941-03-01 21:00:00 TS -20.4208 119.675 main 0 0 ______P__PP___ -1 -20.4498 119.294 946 -20.2821 119.485 TC -20.6404 120.815 7 7 169
1941059S16120 1941 16 SI WA NOT_NAMED 1941-03-01 23:00:00 TS -20.6314 119.773 main 0 0 ______P__PO___ -1 -20.7008 119.563 955 -20.4699 119.676 TC -21.0000 121.000 7 5 166
1941059S16120 1941 16 SI WA NOT_NAMED 1941-03-02 00:00:00 TS -20.6839 119.750 main 0 0 ______P__P____ -1 -20.8040 119.729 960 -20.5638 119.771 TC 7 5 144
1941059S16120 1941 16 SI WA NOT_NAMED 1941-03-02 01:00:00 TS -20.7788 119.883 965 bom main 0 0 ______O__P____ -1 -20.9000 119.900 965 -20.6576 119.867 TC 7 9 128
1941059S16120 1941 16 SI WA NOT_NAMED 1941-03-02 03:00:00 TS -20.9654 120.139 main 0 0 ______P__P____ -1 -21.0857 120.219 -20.8451 120.058 TC 7 9 129
1941059S16120 1941 16 SI WA NOT_NAMED 1941-03-02 06:00:00 TS -21.2403 120.491 main 0 0 ______P__P____ -1 -21.3548 120.636 -21.1259 120.347 TC 7 8 131
1941059S16120 1941 16 SI WA NOT_NAMED 1941-03-02 09:00:00 TS -21.5102 120.813 main 0 0 ______P__P____ -1 -21.6140 120.989 -21.4063 120.636 TC 7 8 133
1941059S16120 1941 16 SI WA NOT_NAMED 1941-03-02 12:00:00 TS -21.7757 121.107 main 0 0 ______P__P____ -1 -21.8653 121.287 -21.6862 120.927 TC 7 135
1941059S16120 1941 16 SI WA NOT_NAMED 1941-03-02 15:00:00 TS -22.0379 121.380 main 0 0 ______P__P____ -1 -22.1102 121.541 -21.9655 121.218 TC 7 136
1941059S16120 1941 16 SI WA NOT_NAMED 1941-03-02 18:00:00 TS -22.3049 121.654 main 0 0 ______P__P____ -1 -22.3503 121.761 -22.2443 121.511 TC 7 138
1941059S16120 1941 16 SI WA NOT_NAMED 1941-03-02 21:00:00 TS -22.5612 121.896 main 0 0 ______P__P____ -1 -22.5871 121.957 -22.5225 121.805 TC 7 139
1941059S16120 1941 16 SI WA NOT_NAMED 1941-03-03 00:00:00 TS -22.8146 122.127 main 0 0 ______P__O____ -1 -22.8219 122.140 -22.8000 122.100 TC 25 1002 7 141
1941059S16120 1941 16 SI WA NOT_NAMED 1941-03-03 01:00:00 NR -22.9000 122.200 1002 bom main 0 ______O_______ -1 -22.9000 122.200 1002 TC 7 140

IBTrACS Databaseについて

本データベースは、米国NOAAが公開する1842年以降の世界の熱帯低気圧のベストトラックデータアーカイブInternational Best Track Archive for Climate Stewardship (IBTrACS)を、ウェブで閲覧しやすい形式に変換したものです。

最終更新日:2021-12-06